LNKJL ENKJ-ENAU
Flight info
| Callsign | LNKJL |
|---|---|
| Flight time | N/A |
| Altitude | 1500 |
| Route | VFR FLIGHT FROM KJELLER TO HAGA |
| Aircraft | C152/L-S/L |
Departure
| Time | 2026-05-07 17:28 |
|---|---|
| Airport | Lillestrøm Airfield, Kjeller (ENKJ) |
Arrival
| Time | N/A |
|---|---|
| Airport | ENAU |
| Time | Latitude | Longitude | Altitude | Speed | Heading |
|---|---|---|---|---|---|
| 2026-05-07 17:24 | 59.96809 | 11.05006 | 354 ft | 0 kts | 303° |
| 2026-05-07 17:24 | 59.96803 | 11.04971 | 354 ft | 8 kts | 236° |
| 2026-05-07 17:24 | 59.96772 | 11.04892 | 357 ft | 8 kts | 236° |
| 2026-05-07 17:24 | 59.96746 | 11.04798 | 357 ft | 8 kts | 246° |
| 2026-05-07 17:25 | 59.96723 | 11.04698 | 354 ft | 8 kts | 237° |
| 2026-05-07 17:25 | 59.96691 | 11.04736 | 352 ft | 9 kts | 120° |
| 2026-05-07 17:25 | 59.96657 | 11.04848 | 357 ft | 9 kts | 118° |
| 2026-05-07 17:25 | 59.96629 | 11.04949 | 351 ft | 7 kts | 109° |
| 2026-05-07 17:26 | 59.96605 | 11.05011 | 353 ft | 4 kts | 186° |
| 2026-05-07 17:26 | 59.96603 | 11.04993 | 352 ft | 6 kts | 305° |
| 2026-05-07 17:26 | 59.96628 | 11.04927 | 351 ft | 8 kts | 300° |
| 2026-05-07 17:26 | 59.96764 | 11.04502 | 357 ft | 62 kts | 302° |
| 2026-05-07 17:27 | 59.97039 | 11.03650 | 433 ft | 79 kts | 300° |
| 2026-05-07 17:27 | 59.97228 | 11.02639 | 610 ft | 78 kts | 269° |
| 2026-05-07 17:27 | 59.97135 | 11.01565 | 751 ft | 79 kts | 240° |
| 2026-05-07 17:27 | 59.96671 | 11.01011 | 861 ft | 83 kts | 180° |
| 2026-05-07 17:28 | 59.96159 | 11.01496 | 999 ft | 80 kts | 150° |
| 2026-05-07 17:28 | 59.95624 | 11.01271 | 1007 ft | 88 kts | 222° |
| 2026-05-07 17:28 | 59.95240 | 11.00339 | 1062 ft | 87 kts | 228° |
| 2026-05-07 17:28 | 59.94730 | 10.99961 | 1081 ft | 90 kts | 147° |
| 2026-05-07 17:29 | 59.94256 | 11.00720 | 1172 ft | 87 kts | 137° |
| 2026-05-07 17:29 | 59.93854 | 11.01607 | 1298 ft | 85 kts | 130° |
| 2026-05-07 17:29 | 59.93531 | 11.02603 | 1398 ft | 87 kts | 119° |
| 2026-05-07 17:29 | 59.93285 | 11.03703 | 1502 ft | 87 kts | 113° |
| 2026-05-07 17:30 | 59.93142 | 11.04913 | 1550 ft | 93 kts | 97° |
| 2026-05-07 17:30 | 59.93142 | 11.06195 | 1598 ft | 93 kts | 83° |
| 2026-05-07 17:30 | 59.93367 | 11.07414 | 1644 ft | 94 kts | 58° |
| 2026-05-07 17:30 | 59.93707 | 11.08543 | 1673 ft | 97 kts | 61° |
| 2026-05-07 17:31 | 59.94068 | 11.09714 | 1656 ft | 101 kts | 57° |
| 2026-05-07 17:31 | 59.94463 | 11.10899 | 1599 ft | 106 kts | 57° |
| 2026-05-07 17:31 | 59.94860 | 11.12140 | 1556 ft | 104 kts | 59° |
| 2026-05-07 17:31 | 59.95248 | 11.13378 | 1497 ft | 105 kts | 57° |
| 2026-05-07 17:32 | 59.95672 | 11.14575 | 1436 ft | 104 kts | 55° |
| 2026-05-07 17:32 | 59.96107 | 11.15693 | 1432 ft | 101 kts | 50° |
| 2026-05-07 17:32 | 59.96577 | 11.16738 | 1418 ft | 101 kts | 47° |
| 2026-05-07 17:32 | 59.96903 | 11.17402 | 1394 ft | 102 kts | 43° |
| 2026-05-07 17:33 | 59.97618 | 11.18639 | 1374 ft | 101 kts | 38° |
| 2026-05-07 17:33 | 59.98190 | 11.19478 | 1349 ft | 101 kts | 36° |
| 2026-05-07 17:33 | 59.98736 | 11.20317 | 1321 ft | 101 kts | 39° |
| 2026-05-07 17:33 | 59.99269 | 11.21223 | 1315 ft | 100 kts | 44° |
| 2026-05-07 17:34 | 59.99740 | 11.22253 | 1302 ft | 100 kts | 54° |
| 2026-05-07 17:34 | 60.00123 | 11.23419 | 1290 ft | 101 kts | 58° |
| 2026-05-07 17:34 | 60.00527 | 11.24551 | 1284 ft | 100 kts | 51° |
| 2026-05-07 17:34 | 60.00979 | 11.25607 | 1274 ft | 100 kts | 49° |
| 2026-05-07 17:35 | 60.01424 | 11.26675 | 1268 ft | 99 kts | 51° |
| 2026-05-07 17:35 | 60.01871 | 11.27682 | 1337 ft | 95 kts | 48° |
| 2026-05-07 17:35 | 60.02322 | 11.28659 | 1354 ft | 96 kts | 47° |
| 2026-05-07 17:35 | 60.02779 | 11.29611 | 1382 ft | 96 kts | 46° |
| 2026-05-07 17:36 | 60.03243 | 11.30587 | 1386 ft | 97 kts | 48° |
| 2026-05-07 17:36 | 60.03697 | 11.31582 | 1413 ft | 96 kts | 47° |
| 2026-05-07 17:36 | 60.04173 | 11.32525 | 1407 ft | 97 kts | 44° |
| 2026-05-07 17:36 | 60.04678 | 11.33424 | 1428 ft | 97 kts | 40° |
| 2026-05-07 17:37 | 60.05217 | 11.34252 | 1450 ft | 98 kts | 36° |
| 2026-05-07 17:37 | 60.05795 | 11.34934 | 1494 ft | 94 kts | 28° |
| 2026-05-07 17:37 | 60.06364 | 11.35585 | 1490 ft | 97 kts | 30° |
| 2026-05-07 17:37 | 60.06948 | 11.36260 | 1505 ft | 97 kts | 28° |
| 2026-05-07 17:38 | 60.07553 | 11.36898 | 1509 ft | 97 kts | 27° |
| 2026-05-07 17:38 | 60.08152 | 11.37502 | 1503 ft | 98 kts | 26° |
| 2026-05-07 17:38 | 60.08765 | 11.38105 | 1488 ft | 98 kts | 25° |
| 2026-05-07 17:38 | 60.09385 | 11.38654 | 1507 ft | 97 kts | 22° |
| 2026-05-07 17:39 | 60.10013 | 11.39159 | 1489 ft | 98 kts | 22° |
| 2026-05-07 17:39 | 60.10631 | 11.39751 | 1478 ft | 98 kts | 28° |
| 2026-05-07 17:39 | 60.11223 | 11.40401 | 1492 ft | 96 kts | 29° |
| 2026-05-07 17:39 | 60.11815 | 11.41060 | 1482 ft | 98 kts | 28° |
| 2026-05-07 17:40 | 60.12415 | 11.41696 | 1490 ft | 97 kts | 27° |
| 2026-05-07 17:40 | 60.13024 | 11.42285 | 1490 ft | 97 kts | 24° |
| 2026-05-07 17:40 | 60.13640 | 11.42798 | 1482 ft | 97 kts | 22° |
| 2026-05-07 17:40 | 60.14262 | 11.43325 | 1487 ft | 97 kts | 32° |
| 2026-05-07 17:41 | 60.14660 | 11.44380 | 1488 ft | 97 kts | 75° |
| 2026-05-07 17:41 | 60.14562 | 11.45694 | 1476 ft | 99 kts | 118° |
| 2026-05-07 17:41 | 60.14088 | 11.46668 | 1477 ft | 99 kts | 148° |
| 2026-05-07 17:41 | 60.13444 | 11.47152 | 1461 ft | 99 kts | 170° |
| 2026-05-07 17:42 | 60.12763 | 11.47156 | 1480 ft | 98 kts | 188° |
| 2026-05-07 17:42 | 60.12095 | 11.46879 | 1491 ft | 98 kts | 194° |
| 2026-05-07 17:42 | 60.11437 | 11.46547 | 1509 ft | 97 kts | 196° |
| 2026-05-07 17:42 | 60.10787 | 11.46100 | 1494 ft | 99 kts | 202° |
| 2026-05-07 17:43 | 60.10162 | 11.45541 | 1506 ft | 98 kts | 205° |
| 2026-05-07 17:43 | 60.09546 | 11.44994 | 1504 ft | 98 kts | 204° |
| 2026-05-07 17:43 | 60.08921 | 11.44433 | 1513 ft | 98 kts | 204° |
| 2026-05-07 17:43 | 60.08295 | 11.43889 | 1515 ft | 98 kts | 206° |
| 2026-05-07 17:44 | 60.07704 | 11.43194 | 1503 ft | 98 kts | 214° |
| 2026-05-07 17:44 | 60.07143 | 11.42412 | 1510 ft | 98 kts | 216° |
| 2026-05-07 17:44 | 60.06575 | 11.41657 | 1518 ft | 98 kts | 212° |
| 2026-05-07 17:44 | 60.05974 | 11.41007 | 1523 ft | 98 kts | 205° |
| 2026-05-07 17:45 | 60.05336 | 11.40519 | 1534 ft | 98 kts | 197° |
| 2026-05-07 17:45 | 60.04669 | 11.40218 | 1538 ft | 98 kts | 189° |
| 2026-05-07 17:45 | 60.03988 | 11.40129 | 1538 ft | 98 kts | 179° |
| 2026-05-07 17:45 | 60.03297 | 11.40125 | 1517 ft | 100 kts | 181° |
| 2026-05-07 17:46 | 60.02613 | 11.40123 | 1543 ft | 98 kts | 179° |
| 2026-05-07 17:46 | 60.01927 | 11.40207 | 1536 ft | 99 kts | 176° |
| 2026-05-07 17:46 | 60.01248 | 11.40320 | 1551 ft | 97 kts | 180° |
| 2026-05-07 17:46 | 60.00563 | 11.40294 | 1539 ft | 99 kts | 179° |
| 2026-05-07 17:47 | 59.99883 | 11.40409 | 1556 ft | 98 kts | 171° |
| 2026-05-07 17:47 | 59.99239 | 11.40811 | 1509 ft | 100 kts | 152° |
| 2026-05-07 17:47 | 59.98634 | 11.41107 | 1471 ft | 93 kts | 210° |
| 2026-05-07 17:47 | 59.98468 | 11.40119 | 1411 ft | 70 kts | 298° |
| 2026-05-07 17:48 | 59.98875 | 11.39684 | 1252 ft | 64 kts | 345° |
| 2026-05-07 17:48 | 59.99288 | 11.39476 | 1127 ft | 60 kts | 344° |
| 2026-05-07 17:48 | 59.99669 | 11.39308 | 1018 ft | 51 kts | 349° |
| 2026-05-07 17:48 | 59.99896 | 11.39224 | 949 ft | 50 kts | 347° |
| 2026-05-07 17:49 | 60.00242 | 11.39082 | 861 ft | 51 kts | 346° |
| 2026-05-07 17:49 | 60.00586 | 11.38913 | 800 ft | 50 kts | 345° |
| 2026-05-07 17:49 | 60.00929 | 11.38753 | 741 ft | 50 kts | 346° |
| 2026-05-07 17:49 | 60.01272 | 11.38593 | 645 ft | 51 kts | 348° |
| 2026-05-07 17:50 | 60.01616 | 11.38444 | 554 ft | 50 kts | 346° |
| 2026-05-07 17:50 | 60.01926 | 11.38286 | 497 ft | 31 kts | 347° |
| 2026-05-07 17:50 | 60.02064 | 11.38215 | 498 ft | 12 kts | 347° |
| 2026-05-07 17:50 | 60.02121 | 11.38188 | 500 ft | 6 kts | 349° |
| 2026-05-07 17:51 | 60.02147 | 11.38195 | 500 ft | 1 kts | 74° |
| 2026-05-07 17:51 | 60.02149 | 11.38214 | 500 ft | 0 kts | 95° |